New Florence, PA (15944)

3:23 PM EST on November 23, 2014 (GMT -0500)
New Florence | Change Station
CLOSE
Current Station
Personal Weather Station
Location: New Florence, PA
Elevation: 1188 ft
Nearby Weather Stations
Active Advisory: Wind Advisory

Elev 1188 ft 40.37 °N, 79.06 °W | Updated 4 minutes ago

Partly Cloudy
Partly Cloudy
56.1 °F
Feels Like 56.1 °F
N
1.7
Wind Variable Wind from SSE

Today
High -- | Low -- °F
--% Chance of Precip.
Yesterday
High -- | Low -- °F
Precip. -- in
7:11 AM 4:53 PM
New Moon, 2% visible
Pressure 29.97 in
Visibility 10.0 miles
Clouds Clear
Dew Point 44 °F
Humidity 63%
Rainfall 0.00 in
Snow Depth Not available.
UV 1 out of 12
Pollen .10 out of 12
Air Quality Not available.
Flu Activity Not available.
METAR KJST 231954Z AUTO 14009G18KT 10SM CLR 14/03 A2996 RMK AO2 SLP147 T01390033

More Conditions Fewer Conditions

Pressure 29.97 in
Visibility 10.0 miles
Clouds Clear
Dew Point 44 °F
Humidity 63%
Rainfall 0.00 in
Snow Depth Not available.
UV 1 out of 12
Pollen .10 out of 12
Air Quality Not available.
Flu Activity Not available.
METAR KJST 231954Z AUTO 14009G18KT 10SM CLR 14/03 A2996 RMK AO2 SLP147 T01390033

More Conditions Fewer Conditions

10-Day Weather Forecast

Almanac

Astronomy

Nov. 23, 2014 Rise Set
Actual Time
Civil Twilight
Nautical Twilight
Astronomical Twilight
Moon
Length of Visible Light
Length of Day
Tomorrow will be .
, % of the Moon is Illuminated

Today's Extremes

State Highs State Lows

Community

WunderPhotos

Upload Photos

1,773,169 photos uploaded!

WunderBlogs® & News

Nearby

Air Quality

  Air Quality AQ Index Pollutant
Not available.

Snow Depth

Station Depth Elevation

Earthquake Activity

City Distance Mag. Time & Date
Minimum magnitude displayed is 2.5.

Coastal Water Temperatures

Place Temperature

Nearby Weather Stations